Time;durP1;ratioP1;P1;durP2;ratioP2;P2;SDS_P1;SDS_P2;PMS_P1;PMS_P2;Temp;Humidity;BMP_temperature;BMP_pressure;BME280_temperature;BME280_humidity;BME280_pressure;Samples;Min_cycle;Max_cycle;Signal;HPM_P1;HPM_P2
2022/05/26 00:00:39;;;;;;;9.80;2.70;;;;;;;20.62;57.79;101358.03;2099768;28;20048;-70
2022/05/26 00:02:03;;;;;;;5.90;2.75;;;;;;;20.61;57.86;101357.16;2107600;27;21272;-71
2022/05/26 00:03:24;;;;;;;4.20;2.30;;;;;;;20.60;58.06;101357.19;2104619;28;20059;-71
2022/05/26 00:04:48;;;;;;;4.75;2.55;;;;;;;20.59;57.81;101367.03;2095160;28;20052;-71
2022/05/26 00:06:14;;;;;;;6.65;2.13;;;;;;;20.58;58.17;101359.91;2094072;28;20106;-71
2022/05/26 00:07:36;;;;;;;4.93;2.30;;;;;;;20.57;57.59;101366.16;2106909;28;20054;-71
2022/05/26 00:08:58;;;;;;;5.80;2.40;;;;;;;20.56;57.44;101360.81;2116489;27;20043;-71
2022/05/26 00:10:21;;;;;;;6.72;2.10;;;;;;;20.52;57.47;101356.44;2091047;28;20049;-70
2022/05/26 00:11:42;;;;;;;4.70;2.03;;;;;;;20.51;57.37;101360.03;2103041;28;20043;-70
2022/05/26 00:13:05;;;;;;;6.85;2.42;;;;;;;20.47;57.34;101364.56;2104955;28;20466;-71
2022/05/26 00:14:30;;;;;;;5.50;2.40;;;;;;;20.32;57.70;101358.50;2119324;27;20697;-70
2022/05/26 00:15:51;;;;;;;6.30;2.47;;;;;;;20.18;58.17;101358.69;2107101;28;20066;-71
2022/05/26 00:17:14;;;;;;;6.93;2.20;;;;;;;20.15;58.26;101356.06;2111152;28;20040;-71
2022/05/26 00:18:37;;;;;;;5.72;2.50;;;;;;;20.11;58.59;101351.63;2104885;28;20186;-71
2022/05/26 00:20:00;;;;;;;5.90;2.40;;;;;;;20.04;58.89;101353.53;2117676;27;20099;-71
2022/05/26 00:21:22;;;;;;;6.97;2.70;;;;;;;20.05;58.87;101349.94;2107670;28;20068;-71
2022/05/26 00:22:43;;;;;;;3.35;2.17;;;;;;;20.12;58.65;101356.09;2108715;28;20042;-71
2022/05/26 00:24:06;;;;;;;6.65;2.30;;;;;;;20.14;58.58;101362.34;2111104;28;20043;-71
2022/05/26 00:25:29;;;;;;;5.55;2.83;;;;;;;20.17;58.39;101362.28;2093860;28;20144;-71
2022/05/26 00:26:52;;;;;;;5.72;2.47;;;;;;;20.17;58.29;101355.13;2105224;28;20052;-70
2022/05/26 00:28:14;;;;;;;4.60;2.08;;;;;;;20.19;58.00;101361.34;2101265;28;20511;-71
2022/05/26 00:29:37;;;;;;;5.20;2.30;;;;;;;20.18;58.03;101359.59;2102436;28;20119;-70
2022/05/26 00:31:00;;;;;;;5.57;2.40;;;;;;;20.13;58.40;101366.81;2105156;28;20043;-71
2022/05/26 00:32:22;;;;;;;5.72;2.75;;;;;;;20.06;58.39;101357.06;2112781;28;20052;-71
2022/05/26 00:33:45;;;;;;;4.93;2.42;;;;;;;20.00;58.81;101365.19;2101678;28;20139;-71
2022/05/26 00:35:11;;;;;;;6.03;2.40;;;;;;;19.93;58.84;101355.47;2110528;28;20083;-71
2022/05/26 00:36:38;;;;;;;6.25;2.25;;;;;;;19.85;59.37;101358.25;2109490;28;20044;-71
2022/05/26 00:38:01;;;;;;;6.13;2.78;;;;;;;19.74;59.62;101357.50;2102092;28;20044;-70
2022/05/26 00:39:26;;;;;;;4.18;2.20;;;;;;;19.70;59.65;101354.84;2106808;28;20121;-70
2022/05/26 00:40:47;;;;;;;5.18;2.30;;;;;;;19.74;59.63;101351.25;2101301;28;20157;-71
2022/05/26 00:42:11;;;;;;;8.45;2.60;;;;;;;19.81;59.53;101353.84;2085684;28;20044;-70
2022/05/26 00:43:34;;;;;;;4.68;2.30;;;;;;;19.86;59.46;101361.81;2098684;28;20056;-71
2022/05/26 00:44:57;;;;;;;6.75;2.60;;;;;;;19.87;59.35;101361.81;2116853;27;20046;-70
2022/05/26 00:46:24;;;;;;;5.07;2.55;;;;;;;19.94;59.22;101356.34;2106156;28;20419;-71
2022/05/26 00:47:48;;;;;;;4.63;2.67;;;;;;;19.96;59.20;101366.13;2083903;28;20033;-70
2022/05/26 00:49:18;;;;;;;6.35;2.58;;;;;;;19.96;59.09;101363.44;2105138;28;20157;-70
2022/05/26 00:50:48;;;;;;;5.35;2.20;;;;;;;19.96;59.15;101357.19;2102614;28;20082;-70
2022/05/26 00:52:14;;;;;;;4.22;2.20;;;;;;;19.93;58.92;101358.16;2109222;28;20380;-71
2022/05/26 00:53:40;;;;;;;7.78;2.88;;;;;;;19.94;59.10;101359.03;2104644;28;20083;-71
2022/05/26 00:55:07;;;;;;;10.02;2.90;;;;;;;19.92;59.01;101356.38;2100319;28;20040;-71
2022/05/26 00:56:35;;;;;;;5.60;2.30;;;;;;;19.91;59.04;101354.59;2105547;28;20372;-71
2022/05/26 00:58:03;;;;;;;5.43;2.13;;;;;;;19.92;59.02;101353.69;2094134;28;20083;-70
2022/05/26 00:59:34;;;;;;;6.43;2.58;;;;;;;19.94;59.13;101351.88;2094497;28;20093;-71
2022/05/26 01:01:00;;;;;;;7.03;2.60;;;;;;;19.95;59.15;101360.81;2087347;28;20072;-71
2022/05/26 01:02:25;;;;;;;7.60;2.80;;;;;;;19.94;59.15;101356.34;2087358;28;20086;-70
2022/05/26 01:03:54;;;;;;;5.32;2.58;;;;;;;19.92;59.18;101358.16;2099626;28;20143;-71
2022/05/26 01:05:20;;;;;;;5.95;2.70;;;;;;;19.90;59.07;101363.53;2097584;28;20136;-71
2022/05/26 01:06:47;;;;;;;5.05;2.42;;;;;;;19.92;58.98;101372.44;2111397;28;20410;-71
2022/05/26 01:08:17;;;;;;;6.28;2.60;;;;;;;19.90;58.94;101359.06;2091675;28;20049;-71
2022/05/26 01:09:39;;;;;;;5.22;2.60;;;;;;;19.88;58.91;101360.91;2099929;28;20274;-70
2022/05/26 01:11:02;;;;;;;4.13;2.47;;;;;;;19.89;59.07;101367.13;2098215;28;20112;-71
2022/05/26 01:12:26;;;;;;;6.53;3.42;;;;;;;19.89;59.19;101362.66;2099054;28;20561;-71
2022/05/26 01:13:51;;;;;;;3.53;2.30;;;;;;;19.88;59.46;101358.22;2097077;28;20508;-71
2022/05/26 01:15:16;;;;;;;9.50;2.80;;;;;;;19.90;59.21;101352.81;2094364;28;20060;-71
2022/05/26 01:16:43;;;;;;;4.07;1.98;;;;;;;19.92;59.17;101355.47;2102753;28;20544;-71
2022/05/26 01:18:18;;;;;;;3.90;2.08;;;;;;;19.90;59.24;101345.66;2102728;28;20510;-71
2022/05/26 01:20:16;;;;;;;6.20;2.20;;;;;;;19.89;59.33;101356.41;2100414;28;20074;-71
2022/05/26 01:21:46;;;;;;;4.93;2.20;;;;;;;19.84;59.40;101351.09;2108167;28;20511;-71
2022/05/26 01:23:46;;;;;;;4.78;2.30;;;;;;;19.84;59.25;101352.91;2095070;28;20437;-70
2022/05/26 01:25:49;;;;;;;5.35;2.47;;;;;;;19.81;59.32;101345.81;2105204;28;20055;-71
2022/05/26 01:27:23;;;;;;;3.63;2.15;;;;;;;19.79;59.37;101354.75;2102795;28;20113;-72
2022/05/26 01:29:11;;;;;;;2.90;1.95;;;;;;;19.81;59.19;101342.25;2102870;28;20047;-71
2022/05/26 01:30:46;;;;;;;6.22;2.65;;;;;;;19.78;59.31;101353.88;2104574;28;20085;-72
2022/05/26 01:32:15;;;;;;;6.82;3.10;;;;;;;19.78;59.27;101348.50;2111653;28;20085;-72
2022/05/26 01:33:47;;;;;;;5.30;1.85;;;;;;;19.78;59.23;101342.25;2111768;28;20583;-72
2022/05/26 01:35:15;;;;;;;4.85;2.50;;;;;;;19.76;59.23;101342.28;2103838;28;20577;-72
2022/05/26 01:36:47;;;;;;;5.90;2.58;;;;;;;19.77;59.08;101344.06;2104252;28;20051;-72
2022/05/26 01:38:21;;;;;;;10.68;3.67;;;;;;;19.79;59.13;101344.03;2109319;28;20535;-73
2022/05/26 01:39:59;;;;;;;6.80;2.45;;;;;;;19.80;59.05;101345.81;2095706;28;20142;-72
2022/05/26 01:41:34;;;;;;;3.70;2.05;;;;;;;19.77;59.26;101337.81;2105129;28;20052;-72
2022/05/26 01:43:04;;;;;;;6.70;2.75;;;;;;;19.74;59.34;101341.44;2105349;28;20039;-72
2022/05/26 01:44:36;;;;;;;6.22;2.50;;;;;;;19.73;59.15;101345.00;2104713;28;20142;-72
2022/05/26 01:46:01;;;;;;;4.80;2.55;;;;;;;19.73;59.12;101338.75;2105601;28;20109;-72
2022/05/26 01:47:42;;;;;;;4.68;2.30;;;;;;;19.74;59.07;101340.53;2103756;28;20054;-72
2022/05/26 01:49:11;;;;;;;7.50;2.53;;;;;;;19.70;59.09;101342.34;2097938;28;20081;-72
2022/05/26 01:50:43;;;;;;;6.10;2.65;;;;;;;19.67;59.56;101344.19;2102240;28;20527;-72
2022/05/26 01:52:13;;;;;;;8.40;2.42;;;;;;;19.61;59.56;101342.50;2091060;28;20111;-72
2022/05/26 01:53:44;;;;;;;5.40;3.05;;;;;;;19.60;59.70;101338.03;2102658;28;20044;-72
2022/05/26 01:55:13;;;;;;;5.00;2.15;;;;;;;19.58;59.78;101337.16;2090281;28;20049;-72
2022/05/26 01:56:43;;;;;;;4.95;2.22;;;;;;;19.60;59.74;101343.38;2114183;27;20135;-72
2022/05/26 01:58:13;;;;;;;4.78;2.25;;;;;;;19.63;59.58;101337.97;2098528;28;20094;-72
2022/05/26 01:59:38;;;;;;;5.70;2.10;;;;;;;19.67;59.42;101349.56;2113069;28;20055;-72
2022/05/26 02:01:07;;;;;;;5.22;2.50;;;;;;;19.69;59.17;101347.75;2091713;28;20049;-72
2022/05/26 02:02:36;;;;;;;6.60;2.78;;;;;;;19.67;59.13;101347.78;2096722;28;20045;-72
2022/05/26 02:04:02;;;;;;;3.28;2.13;;;;;;;19.66;59.31;101353.13;2097250;28;20052;-72
2022/05/26 02:05:29;;;;;;;4.50;2.50;;;;;;;19.64;59.38;101354.94;2114970;27;20047;-73
2022/05/26 02:06:58;;;;;;;6.35;2.08;;;;;;;19.63;59.45;101353.16;2099568;28;20422;-72
2022/05/26 02:08:26;;;;;;;4.95;2.00;;;;;;;19.63;59.32;101350.47;2096980;28;20086;-72
2022/05/26 02:09:50;;;;;;;6.07;2.60;;;;;;;19.64;59.35;101358.50;2092068;28;20041;-72
2022/05/26 02:11:16;;;;;;;5.75;2.47;;;;;;;19.65;59.00;101352.25;2099755;28;20048;-72
2022/05/26 02:12:42;;;;;;;4.93;2.60;;;;;;;19.66;59.01;101355.81;2087186;28;20041;-72
2022/05/26 02:14:13;;;;;;;5.38;2.55;;;;;;;19.63;59.27;101353.16;2093747;28;20143;-72
2022/05/26 02:15:41;;;;;;;5.30;2.80;;;;;;;19.64;59.22;101354.94;2094958;28;20040;-72
2022/05/26 02:17:12;;;;;;;6.03;2.58;;;;;;;19.64;59.08;101355.81;2109289;28;20055;-72
2022/05/26 02:18:43;;;;;;;4.60;2.42;;;;;;;19.61;58.87;101355.88;2096063;28;20045;-71
2022/05/26 02:20:09;;;;;;;6.18;2.45;;;;;;;19.57;58.76;101361.28;2096137;28;20055;-72
2022/05/26 02:21:38;;;;;;;4.47;2.08;;;;;;;19.52;58.60;101360.44;2094874;28;20829;-72
2022/05/26 02:23:05;;;;;;;4.57;2.53;;;;;;;19.45;58.58;101356.91;2094100;28;20116;-72
2022/05/26 02:24:34;;;;;;;5.43;2.10;;;;;;;19.43;58.68;101358.72;2100938;28;20061;-72
2022/05/26 02:25:57;;;;;;;5.85;2.05;;;;;;;19.43;58.68;101361.38;2097955;28;20070;-72
2022/05/26 02:27:20;;;;;;;3.58;2.38;;;;;;;19.43;58.38;101362.28;2111635;28;20144;-72
2022/05/26 02:30:27;;;;;;;3.80;2.00;;;;;;;19.44;58.39;101358.69;2099059;28;20109;-72
2022/05/26 02:31:50;;;;;;;9.00;2.20;;;;;;;19.44;58.40;101357.81;2114098;27;20543;-72
2022/05/26 02:33:16;;;;;;;5.30;2.47;;;;;;;19.45;58.56;101364.94;2108444;28;20051;-72
2022/05/26 02:34:41;;;;;;;3.78;2.15;;;;;;;19.45;58.40;101364.94;2103730;28;20048;-72
2022/05/26 02:36:04;;;;;;;6.00;2.15;;;;;;;19.42;58.39;101365.00;2106763;28;20499;-72
2022/05/26 02:37:28;;;;;;;8.13;2.90;;;;;;;19.36;58.61;101365.06;2111165;28;20091;-72
2022/05/26 02:38:51;;;;;;;5.90;3.00;;;;;;;19.29;58.83;101366.94;2111650;28;20071;-72
2022/05/26 02:40:15;;;;;;;7.13;2.42;;;;;;;19.26;58.89;101366.94;2099388;28;20546;-72
2022/05/26 02:41:38;;;;;;;7.60;2.60;;;;;;;19.25;59.03;101361.59;2113030;27;20051;-72
2022/05/26 02:43:03;;;;;;;6.18;2.25;;;;;;;19.30;58.95;101368.66;2108818;28;20044;-71
2022/05/26 02:44:27;;;;;;;4.57;2.35;;;;;;;19.33;58.84;101367.75;2114060;28;20134;-72
2022/05/26 02:46:04;;;;;;;7.10;3.20;;;;;;;19.33;58.72;101368.66;2109399;28;20047;-72
2022/05/26 02:47:41;;;;;;;5.40;2.80;;;;;;;19.28;58.80;101370.50;2088560;28;20080;-72
2022/05/26 02:49:19;;;;;;;4.28;2.35;;;;;;;19.28;58.86;101372.28;2104359;28;20056;-72
2022/05/26 02:50:53;;;;;;;5.50;2.25;;;;;;;19.32;58.89;101369.56;2088922;28;20045;-72
2022/05/26 02:52:25;;;;;;;6.57;2.35;;;;;;;19.32;58.76;101374.00;2108971;28;20077;-72
2022/05/26 02:53:53;;;;;;;;;;;;;;;19.29;58.72;101380.31;2112303;28;20043;-72
2022/05/26 02:55:24;;;;;;;5.55;2.55;;;;;;;19.26;58.64;101380.31;2103692;28;19920;-72
2022/05/26 02:56:57;;;;;;;4.75;2.15;;;;;;;19.26;58.67;101376.75;2109260;28;20036;-73
2022/05/26 02:58:30;;;;;;;3.85;1.80;;;;;;;19.25;58.58;101375.88;2111706;28;20102;-72
2022/05/26 03:00:01;;;;;;;5.63;2.50;;;;;;;19.25;58.29;101372.31;2113039;28;20075;-72
2022/05/26 03:01:27;;;;;;;4.53;2.78;;;;;;;19.23;58.36;101371.47;2111208;28;20079;-72
2022/05/26 03:02:57;;;;;;;4.80;2.53;;;;;;;19.23;58.21;101372.31;2111801;28;20104;-72
2022/05/26 03:04:25;;;;;;;5.55;2.10;;;;;;;19.24;58.20;101367.84;2111930;28;20063;-71
2022/05/26 03:05:54;;;;;;;4.03;2.10;;;;;;;19.25;58.20;101372.31;2101035;28;20480;-72
2022/05/26 03:07:23;;;;;;;5.40;2.22;;;;;;;19.24;58.27;101370.53;2103607;28;20500;-72
2022/05/26 03:08:47;;;;;;;7.43;2.90;;;;;;;19.23;58.41;101374.13;2103862;28;20040;-72
2022/05/26 03:10:10;;;;;;;6.43;2.20;;;;;;;19.24;58.36;101375.88;2103185;28;20094;-71
2022/05/26 03:11:44;;;;;;;8.80;2.70;;;;;;;19.29;58.49;101376.75;2100420;28;20048;-72
2022/05/26 03:13:06;;;;;;;5.97;2.80;;;;;;;19.29;58.50;101379.41;2095292;28;20127;-71
2022/05/26 03:14:29;;;;;;;4.45;2.42;;;;;;;19.30;58.33;101378.50;2106325;28;20051;-72
2022/05/26 03:15:52;;;;;;;7.18;3.00;;;;;;;19.30;58.23;101378.50;2103078;28;20186;-72
2022/05/26 03:17:15;;;;;;;3.47;2.08;;;;;;;19.27;58.49;101382.09;2094799;28;20059;-72
2022/05/26 03:18:38;;;;;;;5.43;2.75;;;;;;;19.30;58.40;101381.16;2108365;27;20150;-73
2022/05/26 03:20:01;;;;;;;5.68;2.42;;;;;;;19.32;58.36;101385.63;2105299;28;20048;-72
2022/05/26 03:21:26;;;;;;;5.45;2.20;;;;;;;19.39;58.22;101378.41;2105398;28;20392;-72
2022/05/26 03:22:49;;;;;;;6.15;2.00;;;;;;;19.46;58.13;101385.50;2097426;28;20037;-72
2022/05/26 03:24:13;;;;;;;6.13;2.25;;;;;;;19.54;58.05;101386.31;2093247;28;20052;-71
2022/05/26 03:25:35;;;;;;;4.57;2.22;;;;;;;19.61;57.76;101381.78;2108415;28;20046;-72
2022/05/26 03:26:58;;;;;;;4.88;2.22;;;;;;;19.67;57.52;101387.94;2102052;28;20060;-72
2022/05/26 03:28:20;;;;;;;9.15;2.10;;;;;;;19.74;57.33;101378.94;2107073;28;20077;-72
2022/05/26 03:29:41;;;;;;;3.65;2.00;;;;;;;19.78;57.24;101385.13;2110294;28;20047;-71
2022/05/26 03:31:08;;;;;;;5.72;2.45;;;;;;;19.85;57.21;101376.13;2099562;28;20080;-72
2022/05/26 03:32:31;;;;;;;6.38;2.10;;;;;;;19.90;57.07;101376.94;2106689;28;20097;-72
2022/05/26 03:42:27;;;;;;;5.55;2.53;;;;;;;20.43;56.42;101381.59;2113772;27;20046;-72
2022/05/26 03:43:53;;;;;;;5.72;2.20;;;;;;;20.50;56.09;101383.28;2105253;28;20029;-72
2022/05/26 03:45:19;;;;;;;8.18;2.20;;;;;;;20.57;56.03;101393.00;2101679;28;20056;-72
2022/05/26 03:46:42;;;;;;;3.30;2.05;;;;;;;20.62;56.26;101393.81;2107803;28;20035;-72
2022/05/26 03:48:06;;;;;;;4.53;2.05;;;;;;;20.65;56.16;101395.56;2119401;27;20116;-72
2022/05/26 03:49:28;;;;;;;5.00;2.00;;;;;;;20.60;55.85;101395.66;2113423;28;20088;-72
2022/05/26 03:50:51;;;;;;;5.63;1.92;;;;;;;20.59;56.26;101393.88;2103174;28;20575;-72
2022/05/26 03:52:15;;;;;;;2.97;1.90;;;;;;;20.70;56.11;101396.38;2110302;28;20043;-72
2022/05/26 03:53:38;;;;;;;5.13;2.13;;;;;;;20.84;56.01;101390.78;2098268;28;20097;-72
2022/05/26 03:54:59;;;;;;;3.60;2.30;;;;;;;21.01;55.94;101404.81;2102146;28;20040;-72
2022/05/26 03:56:21;;;;;;;8.13;2.33;;;;;;;21.16;55.85;101391.16;2106062;28;20066;-72
2022/05/26 03:57:43;;;;;;;4.40;1.92;;;;;;;21.32;55.58;101397.16;2101545;28;20733;-72
2022/05/26 03:59:05;;;;;;;6.65;2.55;;;;;;;21.44;55.16;101395.13;2107543;28;20439;-72
2022/05/26 04:00:28;;;;;;;5.55;2.20;;;;;;;21.57;55.06;101406.50;2110240;27;20385;-72
2022/05/26 04:01:51;;;;;;;5.80;2.47;;;;;;;21.70;54.86;101408.03;2104746;28;20073;-72
2022/05/26 04:03:14;;;;;;;8.10;2.65;;;;;;;21.84;54.45;101405.97;2103874;28;20055;-72
2022/05/26 04:04:36;;;;;;;4.88;2.17;;;;;;;22.00;54.21;101408.34;2102644;28;20060;-71
2022/05/26 04:05:58;;;;;;;6.55;2.38;;;;;;;22.13;53.94;101408.06;2108050;28;20047;-72
2022/05/26 04:07:21;;;;;;;8.65;2.17;;;;;;;22.29;53.77;101414.00;2100907;28;20044;-72
2022/05/26 04:08:44;;;;;;;7.85;2.38;;;;;;;22.40;53.64;101413.75;2107963;28;20039;-72
2022/05/26 04:10:09;;;;;;;4.95;2.30;;;;;;;22.54;53.29;101409.81;2110500;28;20075;-72
2022/05/26 04:11:31;;;;;;;7.03;2.17;;;;;;;22.67;53.13;101413.13;2109809;28;20036;-72
2022/05/26 04:12:55;;;;;;;4.53;2.20;;;;;;;22.84;52.92;101420.84;2102555;28;20048;-73
2022/05/26 04:14:18;;;;;;;7.25;2.17;;;;;;;22.98;52.56;101419.53;2116573;27;20142;-72
2022/05/26 04:15:40;;;;;;;4.43;1.77;;;;;;;23.12;52.31;101423.69;2103495;28;20615;-72
2022/05/26 04:17:03;;;;;;;9.05;2.35;;;;;;;23.28;52.22;101422.41;2107734;28;20047;-72
2022/05/26 04:18:26;;;;;;;4.07;2.10;;;;;;;23.41;51.89;101424.72;2102448;28;20044;-72
2022/05/26 04:19:49;;;;;;;4.43;2.10;;;;;;;23.55;51.37;101429.78;2107837;28;20499;-72
2022/05/26 04:21:13;;;;;;;4.88;1.88;;;;;;;23.68;50.87;101428.53;2108568;28;20050;-72
2022/05/26 04:22:36;;;;;;;4.70;2.08;;;;;;;23.82;50.16;101428.13;2110757;28;20096;-73
2022/05/26 04:23:59;;;;;;;5.20;2.42;;;;;;;23.93;49.49;101427.81;2100944;28;20059;-72
2022/05/26 04:25:22;;;;;;;6.53;1.80;;;;;;;24.06;49.29;101429.22;2107963;28;20044;-72
2022/05/26 04:26:43;;;;;;;7.10;2.40;;;;;;;24.21;49.06;101434.22;2109657;28;20134;-72
2022/05/26 04:28:06;;;;;;;6.22;2.10;;;;;;;24.36;48.65;101439.13;2110331;28;20047;-72
2022/05/26 04:29:28;;;;;;;5.22;2.50;;;;;;;24.53;48.18;101436.81;2110571;28;20040;-71
2022/05/26 04:30:50;;;;;;;;;;;;;;;24.64;47.30;101439.16;2101346;28;20066;-72
2022/05/26 04:32:11;;;;;;;4.55;1.95;;;;;;;24.80;47.89;101432.34;2102503;28;20019;-72
2022/05/26 04:33:34;;;;;;;7.57;2.45;;;;;;;24.96;47.71;101432.75;2096326;28;20057;-71
2022/05/26 04:34:56;;;;;;;4.80;2.00;;;;;;;25.12;46.96;101433.13;2099674;28;20416;-71
2022/05/26 04:36:18;;;;;;;4.97;2.17;;;;;;;25.27;46.70;101430.75;2097581;28;20078;-72
2022/05/26 04:37:42;;;;;;;4.75;1.77;;;;;;;25.46;45.83;101433.75;2099626;28;20047;-72
2022/05/26 04:39:04;;;;;;;2.75;1.70;;;;;;;25.61;45.60;101440.44;2105535;28;20047;-71
2022/05/26 04:40:26;;;;;;;6.07;1.95;;;;;;;25.77;45.36;101437.13;2102207;28;20105;-72
2022/05/26 04:41:48;;;;;;;4.38;1.75;;;;;;;25.95;44.98;101440.97;2103621;28;20406;-72
2022/05/26 04:43:10;;;;;;;6.28;2.30;;;;;;;26.18;44.81;101438.31;2101328;28;20070;-72
2022/05/26 04:44:34;;;;;;;3.60;1.88;;;;;;;26.46;44.64;101446.25;2124771;27;20047;-72
2022/05/26 04:45:57;;;;;;;4.57;2.15;;;;;;;26.71;44.36;101453.44;2107622;28;20142;-72
2022/05/26 04:47:18;;;;;;;5.88;1.85;;;;;;;26.93;44.46;101443.50;2113278;28;20054;-72
2022/05/26 04:48:41;;;;;;;4.78;1.80;;;;;;;27.12;44.25;101447.19;2110773;28;20048;-73
2022/05/26 04:50:03;;;;;;;5.55;2.60;;;;;;;27.31;43.73;101447.28;2109246;28;20047;-72
2022/05/26 04:51:25;;;;;;;5.93;1.92;;;;;;;27.43;42.98;101445.91;2101968;28;20048;-72
2022/05/26 04:52:49;;;;;;;12.98;2.50;;;;;;;27.49;42.19;101446.53;2099347;28;20059;-72
2022/05/26 04:54:11;;;;;;;5.20;1.70;;;;;;;27.57;41.99;101440.81;2100707;28;20459;-73
2022/05/26 04:55:33;;;;;;;2.58;1.40;;;;;;;27.67;41.67;101442.16;2110787;28;20055;-73
2022/05/26 04:56:56;;;;;;;3.58;1.83;;;;;;;27.86;41.48;101440.38;2104657;28;20642;-73
2022/05/26 04:58:19;;;;;;;4.07;1.67;;;;;;;28.04;41.09;101447.66;2109567;28;20567;-72
2022/05/26 04:59:42;;;;;;;2.35;1.20;;;;;;;28.27;40.72;101443.03;2110509;28;20649;-73
2022/05/26 05:01:12;;;;;;;4.85;1.40;;;;;;;28.51;40.64;101448.19;2100583;28;20062;-72
2022/05/26 05:02:35;;;;;;;2.53;1.40;;;;;;;28.76;40.39;101442.47;2111437;28;20051;-72
2022/05/26 05:03:56;;;;;;;4.82;1.70;;;;;;;29.00;39.98;101444.94;2094047;28;20047;-73
2022/05/26 05:05:19;;;;;;;4.55;1.52;;;;;;;29.22;39.55;101451.91;2103939;28;20189;-71
2022/05/26 05:06:40;;;;;;;5.68;1.77;;;;;;;29.46;39.13;101446.22;2112261;28;20051;-73
2022/05/26 05:08:04;;;;;;;9.10;1.80;;;;;;;29.74;38.70;101443.78;2102140;28;20099;-73
2022/05/26 05:09:25;;;;;;;3.75;1.30;;;;;;;29.99;37.83;101449.75;2108010;27;20044;-72
2022/05/26 05:10:48;;;;;;;7.55;1.80;;;;;;;30.20;37.50;101439.50;2103634;28;20047;-72
2022/05/26 05:12:13;;;;;;;4.35;2.10;;;;;;;30.44;37.04;101438.13;2103535;28;20044;-73
2022/05/26 05:13:35;;;;;;;4.95;1.50;;;;;;;30.68;36.61;101451.38;2106144;28;20092;-73
2022/05/26 05:14:58;;;;;;;4.55;1.20;;;;;;;30.88;35.95;101446.53;2099012;28;20044;-73
2022/05/26 05:16:24;;;;;;;2.80;1.45;;;;;;;31.10;35.54;101451.66;2106420;28;20082;-72
2022/05/26 05:17:46;;;;;;;7.18;1.77;;;;;;;31.30;35.03;101445.00;2112228;28;20042;-72
2022/05/26 05:19:09;;;;;;;6.38;1.45;;;;;;;31.49;34.62;101453.84;2110783;28;20736;-74
2022/05/26 05:20:32;;;;;;;3.83;1.60;;;;;;;31.69;34.52;101452.66;2103936;28;20102;-73
2022/05/26 05:21:59;;;;;;;4.57;1.58;;;;;;;31.84;34.01;101450.81;2107043;27;20059;-73
2022/05/26 05:23:24;;;;;;;6.22;1.70;;;;;;;32.00;33.04;101451.63;2111306;28;20107;-72
2022/05/26 05:24:52;;;;;;;2.45;1.20;;;;;;;32.16;33.07;101465.25;2103412;28;20040;-73
2022/05/26 05:26:20;;;;;;;8.90;2.08;;;;;;;32.34;32.78;101458.59;2109266;28;20554;-73
2022/05/26 05:27:46;;;;;;;5.72;1.70;;;;;;;32.52;32.18;101465.59;2105233;28;20459;-72
2022/05/26 05:29:14;;;;;;;3.78;1.35;;;;;;;32.68;31.47;101468.25;2112197;28;20108;-72
2022/05/26 05:30:41;;;;;;;5.53;1.45;;;;;;;32.82;31.20;101473.72;2111858;28;20088;-73
2022/05/26 05:32:08;;;;;;;5.53;2.22;;;;;;;32.93;31.27;101462.91;2112239;28;20040;-73
2022/05/26 05:33:33;;;;;;;3.90;1.25;;;;;;;33.06;30.77;101458.38;2104525;28;20151;-73
2022/05/26 05:35:02;;;;;;;5.65;1.65;;;;;;;33.17;30.87;101461.25;2109214;28;20035;-73
2022/05/26 05:36:28;;;;;;;6.65;1.75;;;;;;;33.34;30.61;101471.13;2103141;28;20075;-72
2022/05/26 05:37:51;;;;;;;4.50;1.42;;;;;;;33.46;30.98;101467.53;2108883;28;20043;-73
2022/05/26 05:39:15;;;;;;;6.38;1.80;;;;;;;33.61;30.23;101471.91;2107038;28;20036;-73
2022/05/26 05:40:37;;;;;;;3.20;1.20;;;;;;;33.75;29.72;101476.47;2110716;28;20491;-73
2022/05/26 05:42:00;;;;;;;5.97;1.70;;;;;;;33.90;29.51;101477.28;2111785;28;20040;-72
2022/05/26 05:43:23;;;;;;;3.53;1.60;;;;;;;34.04;28.97;101471.69;2102075;28;20135;-72
2022/05/26 05:44:45;;;;;;;4.20;1.88;;;;;;;34.10;28.61;101474.00;2100811;28;20040;-73
2022/05/26 05:46:09;;;;;;;6.40;1.58;;;;;;;34.16;28.46;101472.66;2100458;28;20419;-72
2022/05/26 05:47:31;;;;;;;4.10;1.50;;;;;;;34.31;28.12;101463.38;2115650;27;20047;-72
2022/05/26 05:48:53;;;;;;;3.53;1.50;;;;;;;34.45;28.02;101460.50;2111179;28;20036;-73
2022/05/26 05:50:16;;;;;;;6.05;1.60;;;;;;;34.58;27.83;101468.72;2101617;28;20578;-72
2022/05/26 05:51:38;;;;;;;4.53;1.33;;;;;;;34.66;27.64;101467.13;2095155;28;20048;-73
2022/05/26 05:53:00;;;;;;;8.25;1.83;;;;;;;34.70;27.49;101470.53;2108211;28;20079;-72
2022/05/26 05:54:25;;;;;;;3.80;1.30;;;;;;;34.71;27.48;101462.22;2111240;28;20048;-73
2022/05/26 05:55:48;;;;;;;6.55;1.58;;;;;;;34.72;27.42;101472.19;2108197;28;20039;-73
2022/05/26 05:57:11;;;;;;;7.43;3.08;;;;;;;34.73;27.84;101470.31;2110668;28;20052;-73
2022/05/26 05:58:33;;;;;;;3.33;1.30;;;;;;;34.86;27.98;101470.28;2101971;28;20040;-73
2022/05/26 05:59:56;;;;;;;4.25;1.50;;;;;;;34.85;27.94;101477.69;2111112;28;20055;-73
2022/05/26 06:01:18;;;;;;;3.78;1.45;;;;;;;34.93;27.80;101461.47;2108522;28;20050;-72
2022/05/26 06:02:41;;;;;;;5.43;1.88;;;;;;;35.02;27.65;101459.91;2117478;27;20074;-73
2022/05/26 06:04:03;;;;;;;4.10;1.30;;;;;;;35.02;27.73;101463.53;2109650;28;20097;-73
2022/05/26 06:05:26;;;;;;;4.80;1.48;;;;;;;35.02;27.78;101465.41;2111607;28;20047;-73
2022/05/26 06:06:48;;;;;;;5.32;1.80;;;;;;;35.12;27.75;101459.09;2101219;28;20052;-73
2022/05/26 06:08:11;;;;;;;4.60;1.40;;;;;;;35.24;27.71;101457.34;2107651;28;20122;-73
2022/05/26 06:09:35;;;;;;;6.85;1.70;;;;;;;35.40;27.51;101468.88;2110075;28;20044;-74
2022/05/26 06:10:58;;;;;;;4.15;1.70;;;;;;;35.52;27.54;101464.28;2102781;28;20435;-73
2022/05/26 06:12:21;;;;;;;6.15;1.58;;;;;;;35.58;27.61;101465.72;2109322;28;20058;-73
2022/05/26 06:13:44;;;;;;;3.63;1.35;;;;;;;35.64;27.52;101452.38;2102811;28;20632;-73
2022/05/26 06:15:08;;;;;;;6.88;1.50;;;;;;;35.66;27.50;101461.34;2106616;28;20099;-74
2022/05/26 06:16:31;;;;;;;4.22;1.70;;;;;;;35.71;27.49;101466.53;2109477;28;20485;-73
2022/05/26 06:17:53;;;;;;;6.95;1.60;;;;;;;35.77;27.24;101466.06;2111150;28;20036;-73
2022/05/26 06:19:15;;;;;;;5.72;1.70;;;;;;;35.76;27.15;101465.16;2113940;27;20043;-71
2022/05/26 06:20:38;;;;;;;4.97;1.73;;;;;;;35.75;27.21;101473.53;2120310;27;20046;-71
2022/05/26 06:22:05;;;;;;;6.97;1.73;;;;;;;35.67;27.42;101473.22;2111640;28;20073;-70
2022/05/26 06:23:28;;;;;;;3.17;1.40;;;;;;;35.63;27.58;101474.47;2101512;28;20052;-69
2022/05/26 06:24:53;;;;;;;5.10;1.75;;;;;;;35.61;27.56;101477.31;2110010;28;20038;-73
2022/05/26 06:26:15;;;;;;;6.82;1.73;;;;;;;35.58;27.69;101471.22;2103378;28;20040;-72
2022/05/26 06:31:02;;;;;;;6.07;1.50;;;;;;;35.64;27.85;101470.72;2108120;28;20139;-73
2022/05/26 06:37:28;;;;;;;;;;;;;;;35.25;28.29;101474.69;2107395;28;20495;-73
2022/05/26 06:38:50;;;;;;;4.00;1.88;;;;;;;35.23;28.90;101477.53;2100998;28;19920;-73
2022/05/26 06:40:16;;;;;;;8.52;2.03;;;;;;;35.15;28.76;101475.34;2108424;28;20101;-73
2022/05/26 06:43:15;;;;;;;4.57;1.63;;;;;;;34.95;28.96;101478.72;2101703;28;20044;-73
2022/05/26 06:44:42;;;;;;;3.28;1.50;;;;;;;34.90;29.07;101480.06;2094342;28;20051;-70
2022/05/26 06:46:04;;;;;;;4.68;1.58;;;;;;;34.83;29.38;101476.03;2094833;28;20039;-72
2022/05/26 06:47:27;;;;;;;5.80;1.63;;;;;;;34.77;29.47;101471.88;2106685;28;20050;-72
2022/05/26 06:48:50;;;;;;;6.15;1.73;;;;;;;34.68;29.30;101467.03;2096794;28;20396;-72
2022/05/26 06:50:14;;;;;;;7.88;1.70;;;;;;;34.64;29.17;101466.38;2105445;28;20523;-72
2022/05/26 06:51:39;;;;;;;4.80;1.67;;;;;;;34.61;28.95;101472.09;2097237;28;20054;-72
2022/05/26 06:53:01;;;;;;;5.90;1.50;;;;;;;34.61;28.88;101473.94;2091879;28;20135;-72
2022/05/26 06:54:24;;;;;;;8.68;2.25;;;;;;;34.66;28.98;101478.09;2107486;27;20082;-73
2022/05/26 06:55:48;;;;;;;6.25;1.80;;;;;;;34.78;29.11;101468.16;2110697;27;20043;-72
2022/05/26 06:57:12;;;;;;;6.15;1.40;;;;;;;34.87;29.14;101472.91;2105384;28;20047;-72
2022/05/26 06:58:35;;;;;;;4.03;1.80;;;;;;;34.99;28.99;101471.13;2108175;28;20080;-71